Time;durP1;ratioP1;P1;durP2;ratioP2;P2;SDS_P1;SDS_P2;PMS_P1;PMS_P2;Temp;Humidity;BMP_temperature;BMP_pressure;BME280_temperature;BME280_humidity;BME280_pressure;Samples;Min_cycle;Max_cycle;Signal;HPM_P1;HPM_P2
2022/07/11 00:01:49;;;;;;;4.77;4.37;;;;;;;16.34;100.00;99782.59;4985844;28;20218;-78
2022/07/11 00:04:18;;;;;;;4.57;4.17;;;;;;;16.36;100.00;99782.47;4991744;28;20191;-78
2022/07/11 00:06:47;;;;;;;4.77;4.23;;;;;;;16.36;100.00;99782.47;4989277;28;20191;-78
2022/07/11 00:09:16;;;;;;;5.97;5.00;;;;;;;16.37;100.00;99786.84;4993178;28;20211;-79
2022/07/11 00:11:47;;;;;;;5.03;4.63;;;;;;;16.35;100.00;99776.28;4988593;28;20199;-79
2022/07/11 00:14:19;;;;;;;6.00;5.43;;;;;;;16.36;100.00;99769.94;4988908;28;20737;-78
2022/07/11 00:16:47;;;;;;;5.23;4.77;;;;;;;16.41;100.00;99778.47;4987826;28;20202;-79
2022/07/11 00:19:15;;;;;;;5.17;4.67;;;;;;;16.42;100.00;99769.50;4987493;28;20702;-79
2022/07/11 00:21:44;;;;;;;5.10;4.70;;;;;;;16.53;100.00;99766.81;4991200;28;20201;-78
2022/07/11 00:24:12;;;;;;;5.10;4.70;;;;;;;16.51;100.00;99758.06;4984055;28;20237;-78
2022/07/11 00:26:40;;;;;;;5.10;4.67;;;;;;;16.41;100.00;99762.44;4988386;28;20285;-79
2022/07/11 00:29:10;;;;;;;5.90;4.97;;;;;;;16.40;100.00;99760.72;4989228;28;20195;-79
2022/07/11 00:31:39;;;;;;;6.70;5.23;;;;;;;16.45;100.00;99758.53;4990112;28;20260;-79
2022/07/11 00:34:07;;;;;;;6.43;5.43;;;;;;;16.19;100.00;99759.72;4985860;28;20256;-79
2022/07/11 00:36:36;;;;;;;5.70;5.20;;;;;;;16.29;100.00;99750.00;4988911;28;20230;-79
2022/07/11 00:39:05;;;;;;;6.80;5.73;;;;;;;16.13;100.00;99752.19;4985960;28;20225;-78
2022/07/11 00:41:34;;;;;;;7.40;6.40;;;;;;;16.05;100.00;99751.94;4986799;28;20218;-78
2022/07/11 00:44:02;;;;;;;6.13;5.63;;;;;;;16.20;100.00;99754.25;4988207;28;20210;-78
2022/07/11 00:46:32;;;;;;;6.57;6.00;;;;;;;16.28;100.00;99757.19;4989543;28;20203;-78
2022/07/11 00:49:01;;;;;;;6.33;5.73;;;;;;;16.28;100.00;99751.84;4988536;28;20203;-78
2022/07/11 00:51:30;;;;;;;6.33;5.73;;;;;;;16.28;100.00;99749.16;4991035;28;20210;-78
2022/07/11 00:53:59;;;;;;;6.70;6.10;;;;;;;16.33;100.00;99756.84;4990706;28;20310;-79
2022/07/11 00:56:30;;;;;;;6.37;5.77;;;;;;;16.31;100.00;99753.44;4990807;28;20199;-79
2022/07/11 00:58:59;;;;;;;6.43;5.80;;;;;;;16.40;100.00;99749.16;4986959;28;20245;-79
2022/07/11 01:01:28;;;;;;;6.53;5.90;;;;;;;16.36;100.00;99753.06;4986787;28;20404;-78
2022/07/11 01:03:58;;;;;;;6.83;6.13;;;;;;;16.27;100.00;99747.47;4987843;28;20256;-79
2022/07/11 01:06:26;;;;;;;6.87;5.63;;;;;;;16.30;100.00;99741.88;4987898;28;20199;-78
2022/07/11 01:08:55;;;;;;;6.50;5.90;;;;;;;16.27;100.00;99744.78;4986729;28;20195;-79
2022/07/11 01:11:23;;;;;;;7.13;6.43;;;;;;;16.25;100.00;99741.38;4989511;28;20198;-79
2022/07/11 01:13:51;;;;;;;6.93;6.23;;;;;;;16.34;100.00;99747.00;4983565;28;20204;-78
2022/07/11 01:16:21;;;;;;;7.30;6.40;;;;;;;16.38;100.00;99738.59;4989705;28;20195;-78
2022/07/11 01:18:53;;;;;;;6.63;5.97;;;;;;;16.42;100.00;99732.06;4990960;28;20229;-78
2022/07/11 01:21:29;;;;;;;7.03;6.43;;;;;;;16.11;100.00;99730.06;4991615;28;20199;-79
2022/07/11 01:24:01;;;;;;;6.80;6.10;;;;;;;16.19;100.00;99739.19;4990694;28;20205;-79
2022/07/11 01:26:32;;;;;;;7.83;6.60;;;;;;;16.23;100.00;99734.47;4991313;28;20199;-79
2022/07/11 01:29:06;;;;;;;7.77;6.97;;;;;;;16.08;100.00;99731.16;4991337;28;20210;-79
2022/07/11 01:31:34;;;;;;;8.83;6.53;;;;;;;16.00;100.00;99733.56;4992766;28;20195;-78
2022/07/11 01:34:03;;;;;;;7.80;7.10;;;;;;;16.17;100.00;99733.09;4994892;28;20207;-79
2022/07/11 01:36:31;;;;;;;7.90;7.07;;;;;;;16.18;100.00;99728.63;4992257;28;20235;-79
2022/07/11 01:39:01;;;;;;;7.67;6.87;;;;;;;15.87;100.00;99732.81;4991270;28;20227;-79
2022/07/11 01:41:29;;;;;;;7.03;6.33;;;;;;;16.08;100.00;99727.63;4991048;28;20665;-79
2022/07/11 01:43:57;;;;;;;8.03;7.23;;;;;;;16.13;100.00;99729.00;4993684;28;20195;-78
2022/07/11 01:46:25;;;;;;;8.83;7.40;;;;;;;16.10;100.00;99729.19;4992620;28;20277;-79
2022/07/11 01:48:54;;;;;;;7.83;7.13;;;;;;;16.21;100.00;99728.38;4994542;28;20206;-78
2022/07/11 01:51:24;;;;;;;7.83;7.03;;;;;;;16.16;100.00;99728.75;4988928;28;20203;-79
2022/07/11 01:53:52;;;;;;;8.40;6.93;;;;;;;16.23;100.00;99726.44;4989915;28;20211;-79
2022/07/11 01:56:22;;;;;;;9.17;8.13;;;;;;;16.33;100.00;99730.09;4990008;28;20195;-78
2022/07/11 01:59:01;;;;;;;7.03;6.33;;;;;;;16.29;100.00;99728.63;4991962;28;20222;-78
2022/07/11 02:01:29;;;;;;;8.50;7.50;;;;;;;16.25;100.00;99725.34;4992415;28;20203;-78
2022/07/11 02:03:58;;;;;;;7.30;6.60;;;;;;;16.27;100.00;99727.91;4993105;28;20217;-78
2022/07/11 02:06:26;;;;;;;10.13;7.03;;;;;;;16.34;100.00;99729.13;4994024;28;20199;-78
2022/07/11 02:08:54;;;;;;;8.87;7.50;;;;;;;16.35;100.00;99729.97;4992089;28;20200;-79
2022/07/11 02:11:24;;;;;;;7.77;7.03;;;;;;;16.30;100.00;99722.28;4985741;28;20281;-79
2022/07/11 02:13:53;;;;;;;7.20;6.60;;;;;;;16.31;100.00;99721.34;4993382;28;20191;-78
2022/07/11 02:16:21;;;;;;;6.90;6.30;;;;;;;16.27;100.00;99720.72;4987587;28;20210;-79
2022/07/11 02:18:50;;;;;;;8.60;6.87;;;;;;;16.27;100.00;99718.06;4993226;28;20219;-79
2022/07/11 02:21:19;;;;;;;7.77;6.93;;;;;;;16.29;100.00;99720.59;4990444;28;20273;-79
2022/07/11 02:23:47;;;;;;;8.47;7.03;;;;;;;16.35;100.00;99719.28;4987480;28;20203;-79
2022/07/11 02:26:15;;;;;;;9.00;8.10;;;;;;;16.11;100.00;99717.53;4991140;28;20199;-79
2022/07/11 02:28:45;;;;;;;8.07;6.83;;;;;;;16.24;100.00;99720.97;4991693;28;20226;-78
2022/07/11 02:31:14;;;;;;;7.77;7.07;;;;;;;16.31;100.00;99716.00;4991191;28;20290;-79
2022/07/11 02:33:42;;;;;;;7.07;6.47;;;;;;;16.31;100.00;99713.34;4988329;28;20311;-79
2022/07/11 02:36:12;;;;;;;7.90;7.10;;;;;;;16.18;100.00;99712.56;4990033;28;20238;-79
2022/07/11 02:38:42;;;;;;;7.70;6.90;;;;;;;15.90;100.00;99714.72;4990687;28;20195;-79
2022/07/11 02:41:10;;;;;;;8.43;7.13;;;;;;;16.03;100.00;99718.16;4990617;28;20203;-78
2022/07/11 02:43:38;;;;;;;7.80;7.00;;;;;;;16.08;100.00;99725.81;4994523;28;20211;-78
2022/07/11 02:46:08;;;;;;;8.30;6.77;;;;;;;16.03;100.00;99717.31;4996189;28;20199;-78
2022/07/11 02:48:36;;;;;;;8.50;7.33;;;;;;;16.10;100.00;99723.84;4991351;28;20226;-79
2022/07/11 02:51:06;;;;;;;8.03;7.23;;;;;;;16.05;100.00;99726.06;4987667;28;20201;-79
2022/07/11 02:53:34;;;;;;;9.23;7.47;;;;;;;15.82;100.00;99722.47;4986988;28;20210;-79
2022/07/11 02:56:02;;;;;;;8.33;7.50;;;;;;;16.05;100.00;99725.22;4987714;28;20199;-79
2022/07/11 02:58:31;;;;;;;6.77;6.17;;;;;;;16.20;100.00;99721.31;4989847;28;20200;-79
2022/07/11 03:00:59;;;;;;;7.23;6.53;;;;;;;16.07;100.00;99713.41;4987284;28;20219;-79
2022/07/11 03:03:29;;;;;;;7.60;6.80;;;;;;;16.00;100.00;99718.38;4993108;28;20294;-79
2022/07/11 03:05:58;;;;;;;7.53;6.80;;;;;;;15.73;100.00;99716.03;4989572;28;20214;-78
2022/07/11 03:08:26;;;;;;;7.90;7.10;;;;;;;15.69;100.00;99717.22;4987970;28;20278;-78
2022/07/11 03:10:54;;;;;;;7.73;7.07;;;;;;;15.57;100.00;99719.94;4992399;28;20355;-78
2022/07/11 03:13:23;;;;;;;7.53;6.80;;;;;;;15.51;100.00;99725.72;4992476;28;20195;-79
2022/07/11 03:15:51;;;;;;;9.13;7.23;;;;;;;15.57;100.00;99725.28;4990715;28;20202;-78
2022/07/11 03:18:19;;;;;;;10.33;7.87;;;;;;;15.48;100.00;99728.66;4989457;28;20229;-78
2022/07/11 03:20:49;;;;;;;12.13;8.17;;;;;;;15.44;100.00;99728.88;4991847;28;20225;-78
2022/07/11 03:23:18;;;;;;;8.83;7.20;;;;;;;15.49;100.00;99725.84;4992132;28;20286;-79
2022/07/11 03:25:46;;;;;;;8.97;7.60;;;;;;;15.46;100.00;99731.44;4992207;28;20196;-78
2022/07/11 03:28:14;;;;;;;9.80;7.83;;;;;;;15.44;100.00;99731.56;4992102;28;20206;-78
2022/07/11 03:30:44;;;;;;;8.30;7.50;;;;;;;15.51;100.00;99728.41;4988138;28;20234;-78
2022/07/11 03:33:12;;;;;;;10.23;7.50;;;;;;;15.47;100.00;99730.47;4992629;28;20202;-78
2022/07/11 03:35:43;;;;;;;8.80;7.23;;;;;;;15.57;100.00;99727.94;4992946;28;20206;-78
2022/07/11 03:38:15;;;;;;;8.20;7.50;;;;;;;15.62;100.00;99725.81;4992106;28;20235;-78
2022/07/11 03:40:43;;;;;;;7.73;6.97;;;;;;;15.82;100.00;99730.47;4987373;28;20296;-79
2022/07/11 03:43:12;;;;;;;9.03;7.00;;;;;;;15.71;100.00;99730.44;4986551;28;20195;-80
2022/07/11 03:45:40;;;;;;;8.03;7.03;;;;;;;15.70;100.00;99720.75;4990339;28;20195;-78
2022/07/11 03:48:09;;;;;;;8.73;7.23;;;;;;;16.01;100.00;99728.09;4991354;28;20225;-79
2022/07/11 03:50:37;;;;;;;7.67;6.60;;;;;;;15.90;100.00;99722.72;4989246;28;20211;-79
2022/07/11 03:53:05;;;;;;;10.20;7.40;;;;;;;15.55;100.00;99714.72;4987034;28;20187;-78
2022/07/11 03:55:37;;;;;;;8.63;6.63;;;;;;;15.60;100.00;99722.38;4988924;28;20575;-78
2022/07/11 03:58:07;;;;;;;9.57;7.30;;;;;;;15.46;100.00;99718.09;4984098;28;20199;-79
2022/07/11 04:00:35;;;;;;;8.00;6.73;;;;;;;15.53;100.00;99719.31;4987947;28;20226;-79
2022/07/11 04:03:03;;;;;;;8.43;7.10;;;;;;;15.68;100.00;99715.53;4991434;28;20191;-78
2022/07/11 04:05:32;;;;;;;7.70;6.80;;;;;;;15.85;100.00;99724.06;4985331;28;20259;-78
2022/07/11 04:08:00;;;;;;;9.70;6.50;;;;;;;15.93;100.00;99722.50;4991516;28;20195;-79
2022/07/11 04:10:28;;;;;;;8.80;6.07;;;;;;;15.94;100.00;99723.38;4988921;28;20200;-79
2022/07/11 04:12:58;;;;;;;9.93;7.07;;;;;;;15.87;100.00;99712.28;4993235;28;20191;-78
2022/07/11 04:15:26;;;;;;;11.10;6.70;;;;;;;15.93;100.00;99714.50;4991020;28;20187;-79
2022/07/11 04:17:54;;;;;;;6.83;5.23;;;;;;;16.07;100.00;99716.09;4989972;28;20206;-78
2022/07/11 04:20:23;;;;;;;7.00;6.40;;;;;;;16.12;100.00;99711.25;4991711;28;20309;-79
2022/07/11 04:22:52;;;;;;;7.67;6.47;;;;;;;16.21;100.00;99713.22;4991223;28;20230;-79
2022/07/11 04:25:21;;;;;;;7.20;6.50;;;;;;;16.29;100.00;99704.56;4992452;28;20213;-78
2022/07/11 04:27:49;;;;;;;7.07;6.30;;;;;;;16.29;100.00;99704.56;4989074;28;20202;-79
2022/07/11 04:30:20;;;;;;;7.57;6.37;;;;;;;16.41;100.00;99714.31;4991349;28;20204;-79
2022/07/11 04:32:48;;;;;;;7.67;6.10;;;;;;;16.37;100.00;99702.13;4986189;28;20203;-79
2022/07/11 04:35:18;;;;;;;7.60;5.80;;;;;;;16.35;100.00;99695.22;4989510;28;20207;-78
2022/07/11 04:37:46;;;;;;;6.50;5.50;;;;;;;16.36;100.00;99700.44;4990868;28;20231;-78
2022/07/11 04:40:14;;;;;;;7.00;6.30;;;;;;;16.37;100.00;99699.47;4988144;28;20328;-79
2022/07/11 04:42:43;;;;;;;8.10;6.10;;;;;;;16.39;100.00;99702.00;4988598;28;20202;-79
2022/07/11 04:45:11;;;;;;;6.97;6.07;;;;;;;16.44;100.00;99702.50;4991213;28;20206;-78
2022/07/11 04:47:42;;;;;;;7.73;6.00;;;;;;;16.51;100.00;99698.38;4989914;28;20195;-78
2022/07/11 04:50:10;;;;;;;7.77;5.80;;;;;;;16.55;100.00;99699.81;4990940;28;20195;-79
2022/07/11 04:52:39;;;;;;;8.40;6.37;;;;;;;16.58;100.00;99697.75;4988018;28;20207;-78
2022/07/11 04:55:08;;;;;;;6.20;5.60;;;;;;;16.66;100.00;99698.97;5003629;28;20203;-78
2022/07/11 04:57:36;;;;;;;6.57;6.00;;;;;;;16.59;100.00;99696.75;4992393;28;20203;-78
2022/07/11 05:00:06;;;;;;;8.43;5.97;;;;;;;16.66;100.00;99698.97;4987902;28;20199;-78
2022/07/11 05:02:35;;;;;;;8.13;6.70;;;;;;;16.54;100.00;99695.44;4987636;28;20213;-78
2022/07/11 05:05:05;;;;;;;7.77;6.47;;;;;;;16.47;100.00;99700.44;4941439;28;20252;-79
2022/07/11 05:07:33;;;;;;;6.50;5.70;;;;;;;16.62;100.00;99697.53;4941205;28;20230;-79
2022/07/11 05:10:02;;;;;;;6.30;5.70;;;;;;;16.68;100.00;99697.00;4938958;28;20203;-79
2022/07/11 05:12:30;;;;;;;6.87;6.07;;;;;;;16.73;100.00;99695.72;5001807;28;20199;-78
2022/07/11 05:14:59;;;;;;;8.77;5.93;;;;;;;16.71;100.00;99704.84;4989166;28;20199;-79
2022/07/11 05:17:28;;;;;;;9.20;6.50;;;;;;;16.65;100.00;99695.44;4987139;28;20209;-79
2022/07/11 05:19:56;;;;;;;8.80;6.57;;;;;;;16.70;100.00;99703.13;4990493;28;20206;-78
2022/07/11 05:22:26;;;;;;;7.33;6.00;;;;;;;16.79;100.00;99689.00;4988493;28;20223;-78
2022/07/11 05:24:55;;;;;;;8.30;6.90;;;;;;;16.76;100.00;99691.94;4991307;28;20213;-78
2022/07/11 05:27:23;;;;;;;9.20;6.87;;;;;;;16.72;100.00;99701.19;4988515;28;20192;-78
2022/07/11 05:29:51;;;;;;;6.70;6.10;;;;;;;16.67;100.00;99703.34;4990657;28;20199;-78
2022/07/11 05:32:19;;;;;;;8.60;7.30;;;;;;;16.75;100.00;99708.94;4986668;28;20203;-78
2022/07/11 05:34:48;;;;;;;9.57;7.53;;;;;;;16.55;100.00;99707.84;4990354;28;20199;-79
2022/07/11 05:37:16;;;;;;;11.37;7.47;;;;;;;16.70;100.00;99713.84;4987319;28;20224;-79
2022/07/11 05:39:46;;;;;;;10.83;6.83;;;;;;;16.83;100.00;99706.50;4991120;28;20195;-78
2022/07/11 05:42:15;;;;;;;10.53;7.63;;;;;;;16.78;100.00;99703.34;4991025;28;20257;-78
2022/07/11 05:44:43;;;;;;;11.23;7.53;;;;;;;16.89;100.00;99700.69;4983843;28;20278;-78
2022/07/11 05:47:11;;;;;;;8.93;6.50;;;;;;;17.01;100.00;99706.84;4989320;28;20278;-78
2022/07/11 05:49:41;;;;;;;10.43;6.90;;;;;;;16.72;100.00;99715.41;4989778;28;20198;-79
2022/07/11 05:52:10;;;;;;;9.40;7.60;;;;;;;16.83;100.00;99710.03;4987259;28;20222;-79
2022/07/11 05:54:38;;;;;;;8.87;7.10;;;;;;;16.93;100.00;99707.47;4989602;28;20188;-79
2022/07/11 05:57:09;;;;;;;8.47;7.27;;;;;;;17.08;100.00;99714.25;4987996;28;20669;-78
2022/07/11 05:59:38;;;;;;;8.23;7.03;;;;;;;17.23;100.00;99708.59;4992225;28;20250;-78
2022/07/11 06:02:06;;;;;;;9.13;6.80;;;;;;;17.26;100.00;99711.00;4988299;28;20218;-79
2022/07/11 06:04:36;;;;;;;8.67;6.90;;;;;;;17.44;100.00;99701.44;4991101;28;20199;-79
2022/07/11 06:07:05;;;;;;;8.87;6.80;;;;;;;17.50;100.00;99698.28;4991182;28;20202;-79
2022/07/11 06:09:32;;;;;;;9.50;6.30;;;;;;;17.66;100.00;99701.38;4996365;28;20269;-79
2022/07/11 06:12:01;;;;;;;7.30;6.07;;;;;;;17.70;100.00;99705.50;4993236;28;20207;-79
2022/07/11 06:14:30;;;;;;;9.77;5.87;;;;;;;17.78;100.00;99704.84;4993659;28;20221;-79
2022/07/11 06:16:59;;;;;;;7.33;6.00;;;;;;;17.88;100.00;99691.53;4988365;28;20281;-78
2022/07/11 06:19:28;;;;;;;8.50;6.30;;;;;;;17.87;100.00;99701.41;4989085;28;20203;-78
2022/07/11 06:21:57;;;;;;;12.53;6.40;;;;;;;17.74;100.00;99690.84;4993099;28;20219;-78
2022/07/11 06:24:25;;;;;;;8.57;6.20;;;;;;;17.87;100.00;99687.16;4989911;28;20206;-78
2022/07/11 06:26:58;;;;;;;11.20;6.00;;;;;;;17.93;100.00;99684.75;4990878;28;20199;-78
2022/07/11 06:29:27;;;;;;;8.83;5.43;;;;;;;18.11;100.00;99679.66;4990428;28;20195;-79
2022/07/11 06:31:56;;;;;;;8.97;5.30;;;;;;;17.94;100.00;99682.94;4987086;28;20226;-79
2022/07/11 06:34:25;;;;;;;7.50;5.53;;;;;;;18.13;100.00;99682.19;4994371;28;20195;-79
2022/07/11 06:36:53;;;;;;;6.83;5.13;;;;;;;18.07;100.00;99677.38;4992992;28;20356;-79
2022/07/11 06:39:21;;;;;;;8.13;5.00;;;;;;;18.17;100.00;99675.59;4993141;28;20685;-78
2022/07/11 06:41:50;;;;;;;9.23;5.47;;;;;;;18.21;100.00;99677.00;4992992;28;20670;-79
2022/07/11 06:44:18;;;;;;;8.83;5.20;;;;;;;18.33;100.00;99678.63;4986767;28;20210;-79
2022/07/11 06:46:53;;;;;;;5.77;5.27;;;;;;;18.41;100.00;99686.00;4987156;28;20204;-79
2022/07/11 06:49:22;;;;;;;6.27;4.33;;;;;;;18.42;100.00;99682.31;4993173;28;20259;-79
2022/07/11 06:51:51;;;;;;;5.10;4.27;;;;;;;18.41;100.00;99683.31;4992636;28;20196;-79
2022/07/11 06:54:19;;;;;;;4.57;3.63;;;;;;;18.54;100.00;99686.63;4987589;28;20203;-78
2022/07/11 06:56:47;;;;;;;6.80;3.97;;;;;;;18.61;100.00;99679.72;4994910;28;20642;-79
2022/07/11 06:59:15;;;;;;;4.87;4.30;;;;;;;18.51;100.00;99685.03;4997260;28;20214;-78
2022/07/11 07:01:43;;;;;;;5.23;4.20;;;;;;;18.68;100.00;99685.41;4991622;28;20223;-78
2022/07/11 07:04:12;;;;;;;5.13;3.87;;;;;;;18.81;100.00;99686.00;4997066;28;20207;-78
2022/07/11 07:06:41;;;;;;;4.13;3.73;;;;;;;18.76;100.00;99681.06;4993697;28;20202;-78
2022/07/11 07:09:10;;;;;;;3.83;3.50;;;;;;;18.79;100.00;99679.94;4992338;28;20214;-78
2022/07/11 07:11:38;;;;;;;5.23;3.70;;;;;;;18.91;100.00;99680.66;4989604;28;20210;-78
2022/07/11 07:14:06;;;;;;;6.53;3.53;;;;;;;18.79;100.00;99678.09;4984812;28;20200;-79
2022/07/11 07:16:36;;;;;;;5.00;3.53;;;;;;;19.06;100.00;99680.13;4990921;28;20198;-79
2022/07/11 07:19:06;;;;;;;5.40;3.33;;;;;;;19.08;100.00;99680.84;4989371;28;20210;-78
2022/07/11 07:21:34;;;;;;;3.50;3.17;;;;;;;19.13;100.00;99683.97;4987795;28;20283;-78
2022/07/11 07:24:05;;;;;;;4.03;3.10;;;;;;;19.16;100.00;99680.16;4992272;28;20203;-78
2022/07/11 07:26:33;;;;;;;4.13;3.00;;;;;;;19.10;100.00;99684.22;4992463;28;20214;-78
2022/07/11 07:29:01;;;;;;;5.00;2.93;;;;;;;19.36;100.00;99681.00;4992719;28;20196;-78
2022/07/11 07:31:30;;;;;;;8.67;3.60;;;;;;;19.38;100.00;99677.19;4984580;28;20211;-78
2022/07/11 07:33:58;;;;;;;5.10;2.43;;;;;;;19.33;100.00;99682.16;4991972;28;20260;-78
2022/07/11 07:36:27;;;;;;;3.63;2.60;;;;;;;19.63;100.00;99681.16;4990660;28;20222;-78
2022/07/11 07:38:55;;;;;;;3.57;2.50;;;;;;;19.80;100.00;99679.59;4989056;28;20287;-78
2022/07/11 07:41:25;;;;;;;3.83;2.37;;;;;;;19.89;100.00;99683.25;4992988;28;20251;-79
2022/07/11 07:43:53;;;;;;;3.63;2.30;;;;;;;19.86;100.00;99679.00;4991625;28;20195;-78
2022/07/11 07:46:21;;;;;;;5.50;2.00;;;;;;;19.83;100.00;99679.31;4987927;28;20187;-78
2022/07/11 07:48:50;;;;;;;2.73;2.53;;;;;;;19.88;100.00;99682.41;4992725;28;20219;-79
2022/07/11 07:51:19;;;;;;;4.70;2.17;;;;;;;20.08;100.00;99691.28;4992775;28;20199;-78
2022/07/11 07:53:47;;;;;;;2.47;2.07;;;;;;;20.07;100.00;99686.88;4991650;28;20209;-79
2022/07/11 07:56:23;;;;;;;3.60;2.10;;;;;;;19.93;100.00;99688.19;4989992;28;20202;-78
2022/07/11 07:58:53;;;;;;;3.80;2.13;;;;;;;19.78;100.00;99689.63;4988931;28;20199;-79
2022/07/11 08:01:36;;;;;;;2.73;2.10;;;;;;;19.44;100.00;99686.53;4986068;28;20279;-78
2022/07/11 08:04:06;;;;;;;3.10;2.30;;;;;;;19.61;100.00;99685.00;4992107;28;20198;-79
2022/07/11 08:06:35;;;;;;;3.10;2.30;;;;;;;19.62;100.00;99694.75;4993618;28;20211;-79
2022/07/11 08:09:04;;;;;;;4.43;2.20;;;;;;;19.31;100.00;99686.81;5004086;28;20199;-78
2022/07/11 08:11:34;;;;;;;6.53;2.30;;;;;;;19.48;100.00;99695.97;4991760;28;20203;-79
2022/07/11 08:14:05;;;;;;;5.60;2.40;;;;;;;19.77;100.00;99695.16;4991525;28;20729;-78
2022/07/11 08:16:33;;;;;;;4.10;2.57;;;;;;;19.51;100.00;99695.72;4994686;28;20203;-79
2022/07/11 08:19:04;;;;;;;4.03;2.20;;;;;;;19.72;100.00;99696.44;4985612;28;20203;-78
2022/07/11 08:21:34;;;;;;;5.40;2.43;;;;;;;19.80;100.00;99697.56;4986698;28;20218;-78
2022/07/11 08:24:02;;;;;;;3.43;2.53;;;;;;;19.87;100.00;99695.97;4988533;28;20253;-79
2022/07/11 08:26:31;;;;;;;3.17;2.20;;;;;;;19.93;100.00;99695.41;4986735;28;20205;-78
2022/07/11 08:29:04;;;;;;;4.37;2.30;;;;;;;20.16;100.00;99704.84;4990322;28;20191;-79
2022/07/11 08:31:33;;;;;;;4.07;2.07;;;;;;;20.23;100.00;99707.78;4990374;28;20221;-78
2022/07/11 08:34:02;;;;;;;2.83;1.97;;;;;;;20.28;100.00;99702.84;4989616;28;20199;-79
2022/07/11 08:36:34;;;;;;;2.90;2.00;;;;;;;20.37;100.00;99698.41;4988885;28;20234;-79
2022/07/11 08:39:03;;;;;;;33.40;22.30;;;;;;;20.33;100.00;99697.84;4983467;28;20264;-79
2022/07/11 08:41:32;;;;;;;24.10;19.00;;;;;;;20.42;100.00;99694.28;4991180;28;20278;-79
2022/07/11 08:44:02;;;;;;;5.77;3.63;;;;;;;20.29;100.00;99699.16;5024386;28;20250;-78
2022/07/11 08:46:32;;;;;;;3.97;2.70;;;;;;;20.51;100.00;99693.41;4986147;28;20209;-79
2022/07/11 08:49:04;;;;;;;2.37;1.77;;;;;;;20.97;100.00;99697.00;4990961;28;20195;-78
2022/07/11 08:51:33;;;;;;;3.07;1.70;;;;;;;21.09;100.00;99694.94;4988161;28;20232;-79
2022/07/11 08:54:01;;;;;;;2.17;1.80;;;;;;;21.05;100.00;99690.88;4986617;28;20207;-79
2022/07/11 08:56:29;;;;;;;3.60;2.17;;;;;;;21.06;100.00;99693.41;4987909;28;20211;-78
2022/07/11 08:59:00;;;;;;;2.97;1.80;;;;;;;21.32;100.00;99687.28;4990965;28;20203;-78
2022/07/11 09:01:32;;;;;;;2.50;1.70;;;;;;;21.09;100.00;99698.47;4990029;28;20195;-79
2022/07/11 09:04:01;;;;;;;3.30;1.70;;;;;;;21.29;100.00;99692.97;4998072;28;20227;-79
2022/07/11 09:06:29;;;;;;;1.73;1.60;;;;;;;21.29;100.00;99690.28;4991187;28;20199;-78
2022/07/11 09:09:00;;;;;;;1.73;1.63;;;;;;;21.19;100.00;99686.78;4991426;28;20635;-79
2022/07/11 09:11:28;;;;;;;2.60;1.70;;;;;;;20.99;100.00;99689.63;4987183;28;20195;-78
2022/07/11 09:13:56;;;;;;;2.40;1.90;;;;;;;21.08;100.00;99690.56;4987939;28;20199;-78
2022/07/11 09:16:28;;;;;;;2.67;1.83;;;;;;;21.40;100.00;99687.34;4994420;28;20213;-79
2022/07/11 09:19:02;;;;;;;3.27;2.40;;;;;;;21.28;100.00;99675.97;4987297;28;20283;-78
2022/07/11 09:27:01;;;;;;;2.03;1.83;;;;;;;21.56;100.00;99676.72;4990660;28;20195;-78
2022/07/11 09:29:29;;;;;;;2.50;2.20;;;;;;;21.54;100.00;99678.75;4990379;28;20203;-79
2022/07/11 09:31:57;;;;;;;2.73;2.40;;;;;;;21.55;100.00;99680.44;4989417;28;20203;-78
2022/07/11 09:34:28;;;;;;;2.57;2.07;;;;;;;21.90;100.00;99684.06;4990172;28;20200;-79
2022/07/11 09:36:57;;;;;;;3.30;2.40;;;;;;;22.07;100.00;99688.59;4986746;28;20223;-78
2022/07/11 09:39:27;;;;;;;2.77;2.23;;;;;;;22.32;100.00;99678.81;4956780;28;20198;-78
2022/07/11 09:41:56;;;;;;;2.10;1.90;;;;;;;22.28;100.00;99680.97;4989824;28;20195;-78
2022/07/11 09:44:27;;;;;;;2.57;1.80;;;;;;;21.85;100.00;99681.84;4990865;28;20250;-78
2022/07/11 09:46:57;;;;;;;4.63;1.90;;;;;;;21.84;100.00;99685.53;4992432;28;20191;-78
2022/07/11 09:49:35;;;;;;;2.97;2.17;;;;;;;21.76;100.00;99690.03;4986184;28;20229;-78
2022/07/11 09:52:11;;;;;;;5.33;2.73;;;;;;;21.64;100.00;99689.44;4994945;28;20199;-79
2022/07/11 09:54:56;;;;;;;4.73;3.10;;;;;;;21.59;100.00;99681.78;4994063;28;20665;-78
2022/07/11 09:57:32;;;;;;;2.80;2.10;;;;;;;21.43;100.00;99685.22;4998125;28;20230;-78
2022/07/11 10:00:03;;;;;;;2.47;1.70;;;;;;;21.49;100.00;99689.13;4993673;28;20265;-79
2022/07/11 10:02:31;;;;;;;2.10;1.70;;;;;;;21.35;100.00;99693.22;4989624;28;20210;-78
2022/07/11 10:05:02;;;;;;;3.23;2.20;;;;;;;20.92;100.00;99687.66;4991242;28;20215;-78
2022/07/11 10:07:31;;;;;;;3.50;1.80;;;;;;;21.18;100.00;99685.09;4987109;28;20188;-78
2022/07/11 10:10:02;;;;;;;2.13;1.93;;;;;;;21.33;100.00;99689.00;4993227;28;20195;-78
2022/07/11 10:12:31;;;;;;;2.23;1.90;;;;;;;21.26;100.00;99677.97;4993525;28;20196;-78
2022/07/11 10:15:03;;;;;;;1.87;1.50;;;;;;;21.49;100.00;99683.72;4993480;28;20278;-78
2022/07/11 10:17:40;;;;;;;1.70;1.60;;;;;;;21.84;100.00;99676.63;4992162;28;20191;-78
2022/07/11 10:20:18;;;;;;;2.77;1.50;;;;;;;21.86;100.00;99683.53;4993349;28;20199;-79
2022/07/11 10:22:53;;;;;;;1.47;1.37;;;;;;;22.25;100.00;99681.28;4987059;28;20595;-78
2022/07/11 10:25:29;;;;;;;1.47;1.30;;;;;;;22.06;100.00;99683.34;4988898;28;20213;-78
2022/07/11 10:28:17;;;;;;;2.60;1.70;;;;;;;22.06;100.00;99678.78;4976050;28;20197;-78
2022/07/11 10:30:47;;;;;;;1.95;1.60;;;;;;;22.08;100.00;99682.19;4991506;28;20199;-78
2022/07/11 10:33:17;;;;;;;2.30;1.80;;;;;;;21.85;100.00;99681.00;4990147;28;20230;-78
2022/07/11 10:35:48;;;;;;;3.03;1.80;;;;;;;22.01;100.00;99689.22;4993121;28;20217;-78
2022/07/11 10:38:17;;;;;;;2.90;1.83;;;;;;;22.40;100.00;99686.09;4992912;28;20231;-78
2022/07/11 10:40:48;;;;;;;4.53;2.10;;;;;;;22.43;100.00;99681.22;4983551;28;20200;-78
2022/07/11 10:43:32;;;;;;;3.40;2.15;;;;;;;22.50;100.00;99686.81;4990733;28;20203;-78
2022/07/11 10:46:02;;;;;;;3.08;2.05;;;;;;;22.68;100.00;99689.41;4991557;28;20201;-79
2022/07/11 10:48:32;;;;;;;2.10;1.90;;;;;;;23.01;100.00;99691.25;4993126;28;20203;-79
2022/07/11 10:51:09;;;;;;;3.17;2.20;;;;;;;23.01;100.00;99688.56;4992123;28;20219;-79
2022/07/11 10:53:44;;;;;;;2.72;2.00;;;;;;;22.81;100.00;99695.22;4992602;28;20206;-78
2022/07/11 10:56:26;;;;;;;3.25;2.20;;;;;;;22.40;100.00;99696.91;4990070;28;20217;-78
2022/07/11 10:59:16;;;;;;;2.95;1.90;;;;;;;22.53;100.00;99700.84;4992905;28;20203;-78
2022/07/11 11:02:18;;;;;;;1.95;1.77;;;;;;;22.31;100.00;99696.00;4991550;28;20278;-78
2022/07/11 11:04:48;;;;;;;3.30;2.00;;;;;;;22.49;100.00;99695.94;5023380;28;20332;-79
2022/07/11 11:07:36;;;;;;;2.58;1.90;;;;;;;22.26;100.00;99685.69;5032951;28;20285;-78
2022/07/11 11:10:07;;;;;;;2.08;1.88;;;;;;;22.43;100.00;99693.88;5000106;28;20203;-78
2022/07/11 11:13:14;;;;;;;3.50;1.58;;;;;;;22.55;100.00;99690.72;4992952;28;20282;-78
2022/07/11 11:15:45;;;;;;;1.90;1.40;;;;;;;22.55;100.00;99692.56;4988674;28;20199;-78
2022/07/11 11:18:34;;;;;;;10.40;1.52;;;;;;;22.94;100.00;99684.81;4992800;28;20682;-79
2022/07/11 11:21:19;;;;;;;1.30;1.20;;;;;;;22.64;100.00;99688.06;4988866;28;20199;-78
2022/07/11 11:24:07;;;;;;;1.52;1.42;;;;;;;22.81;100.00;99687.97;4989616;28;20302;-79
2022/07/11 11:26:47;;;;;;;1.50;1.40;;;;;;;23.07;100.00;99689.78;4992527;28;20249;-79
2022/07/11 11:29:20;;;;;;;2.28;1.40;;;;;;;23.46;100.00;99691.88;4992143;28;20203;-79
2022/07/11 11:31:55;;;;;;;2.45;1.20;;;;;;;23.36;100.00;99692.03;4992015;28;20192;-79
2022/07/11 11:34:24;;;;;;;1.65;1.20;;;;;;;23.44;100.00;99689.31;4992270;28;20715;-78
2022/07/11 11:36:59;;;;;;;1.20;1.10;;;;;;;23.22;100.00;99687.25;4991846;28;20243;-79
2022/07/11 11:39:31;;;;;;;1.92;1.10;;;;;;;23.08;100.00;99691.47;4989353;28;20293;-78
2022/07/11 11:42:14;;;;;;;2.55;1.08;;;;;;;22.66;100.00;99696.84;4991937;28;20286;-78
2022/07/11 11:44:55;;;;;;;1.27;1.10;;;;;;;22.76;100.00;99687.59;4992036;28;20244;-79